createdAt,value
2018-09-20T00:02:13.364Z,74.81
2018-09-20T00:04:41.625Z,74.82
2018-09-20T00:07:09.971Z,75.52
2018-09-20T00:09:38.241Z,75.73
2018-09-20T00:12:06.574Z,75.60
2018-09-20T00:14:34.892Z,76.06
2018-09-20T00:17:03.173Z,75.73
2018-09-20T00:19:31.484Z,75.36
2018-09-20T00:21:59.791Z,75.84
2018-09-20T00:24:28.227Z,75.79
2018-09-20T00:26:56.553Z,76.09
2018-09-20T00:29:25.215Z,75.94
2018-09-20T00:31:53.556Z,75.77
2018-09-20T00:34:21.835Z,75.63
2018-09-20T00:36:50.314Z,75.99
2018-09-20T00:39:18.641Z,75.73
2018-09-20T00:41:46.940Z,75.67
2018-09-20T00:44:15.274Z,75.69
2018-09-20T00:46:43.589Z,75.71
2018-09-20T00:49:11.939Z,75.91
2018-09-20T00:51:40.295Z,76.48
2018-09-20T00:54:08.628Z,76.46
2018-09-20T00:56:36.953Z,75.92
2018-09-20T00:59:05.473Z,76.32
2018-09-20T01:01:33.817Z,75.66
2018-09-20T01:04:02.159Z,76.43
2018-09-20T01:06:30.482Z,76.00
2018-09-20T01:08:58.764Z,75.97
2018-09-20T01:11:27.218Z,76.64
2018-09-20T01:13:55.504Z,76.66
2018-09-20T01:16:23.855Z,76.50
2018-09-20T01:18:52.342Z,76.47
2018-09-20T01:21:20.673Z,76.62
2018-09-20T01:23:49.005Z,76.68
2018-09-20T01:26:18.105Z,77.41
2018-09-20T01:28:46.496Z,77.20
2018-09-20T01:31:14.786Z,76.78
2018-09-20T01:33:43.083Z,77.30
2018-09-20T01:36:12.351Z,77.48
2018-09-20T01:38:40.652Z,77.01
2018-09-20T01:41:08.981Z,77.64
2018-09-20T01:43:37.284Z,77.65
2018-09-20T01:46:06.013Z,77.98
2018-09-20T01:48:34.281Z,77.75
2018-09-20T01:51:02.579Z,78.28
2018-09-20T01:53:30.957Z,78.62
2018-09-20T01:55:59.276Z,78.50
2018-09-20T01:58:27.619Z,78.71
2018-09-20T02:00:55.866Z,78.00
2018-09-20T02:03:24.265Z,77.80
2018-09-20T02:05:52.561Z,78.97
2018-09-20T02:08:21.005Z,78.55
2018-09-20T02:10:49.310Z,78.66
2018-09-20T02:13:17.927Z,78.97
2018-09-20T02:15:46.239Z,78.99
2018-09-20T02:18:14.534Z,78.88
2018-09-20T02:20:42.910Z,79.73
2018-09-20T02:23:11.231Z,79.56
2018-09-20T02:25:39.612Z,79.12
2018-09-20T02:28:08.030Z,79.12
2018-09-20T02:31:16.306Z,78.48
2018-09-20T02:33:44.626Z,79.18
2018-09-20T02:36:12.928Z,79.46
2018-09-20T02:38:41.529Z,79.91
2018-09-20T02:41:10.424Z,79.63
2018-09-20T02:43:38.792Z,79.10
2018-09-20T02:46:07.124Z,79.57
2018-09-20T02:48:35.508Z,79.18
2018-09-20T02:51:03.893Z,79.87
2018-09-20T02:53:32.357Z,79.15
2018-09-20T02:56:00.663Z,80.14
2018-09-20T02:58:29.007Z,80.02
2018-09-20T03:00:57.279Z,79.83
2018-09-20T03:03:25.835Z,80.18
2018-09-20T03:05:54.147Z,79.56
2018-09-20T03:08:22.482Z,79.79
2018-09-20T03:10:50.786Z,80.21
2018-09-20T03:13:19.078Z,80.08
2018-09-20T03:15:47.345Z,80.19
2018-09-20T03:18:15.684Z,80.31
2018-09-20T03:20:44.024Z,80.23
2018-09-20T03:23:12.419Z,80.27
2018-09-20T03:25:40.720Z,80.15
2018-09-20T03:28:09.075Z,80.42
2018-09-20T03:30:37.451Z,81.18
2018-09-20T03:33:06.017Z,80.38
2018-09-20T03:35:34.380Z,80.46
2018-09-20T03:38:02.686Z,80.81
2018-09-20T03:40:31.035Z,80.80
2018-09-20T03:42:59.327Z,80.93
2018-09-20T03:45:27.631Z,80.71
2018-09-20T03:47:55.945Z,81.43
2018-09-20T03:50:24.273Z,80.88
2018-09-20T03:52:52.595Z,81.53
2018-09-20T03:55:20.934Z,81.33
2018-09-20T03:57:49.262Z,81.67
2018-09-20T04:00:17.555Z,81.68
2018-09-20T04:02:45.895Z,81.56
2018-09-20T04:05:14.222Z,81.19
2018-09-20T04:07:42.593Z,81.55
2018-09-20T04:10:10.951Z,81.79
2018-09-20T04:12:39.521Z,81.73
2018-09-20T04:15:08.049Z,81.78
2018-09-20T04:17:36.357Z,81.54
2018-09-20T04:20:05.240Z,82.15
2018-09-20T04:22:33.584Z,81.38
2018-09-20T04:25:01.956Z,82.25
2018-09-20T04:27:30.215Z,82.04
2018-09-20T04:29:58.591Z,81.94
2018-09-20T04:32:26.905Z,81.83
2018-09-20T04:34:55.182Z,82.23
2018-09-20T04:37:23.537Z,81.85
2018-09-20T04:39:51.843Z,82.14
2018-09-20T04:42:20.208Z,82.36
2018-09-20T04:44:48.570Z,82.40
2018-09-20T04:47:16.852Z,82.31
2018-09-20T04:49:45.265Z,82.02
2018-09-20T04:52:13.552Z,82.45
2018-09-20T04:54:41.882Z,82.70
2018-09-20T04:57:10.275Z,82.08
2018-09-20T04:59:39.221Z,82.42
2018-09-20T05:02:07.579Z,82.67
2018-09-20T05:04:35.959Z,82.31
2018-09-20T05:07:04.264Z,82.14
2018-09-20T05:09:32.696Z,82.32
2018-09-20T05:12:00.949Z,82.16
2018-09-20T05:14:29.253Z,82.84
2018-09-20T05:16:57.515Z,81.97
2018-09-20T05:19:25.883Z,82.23
2018-09-20T05:21:54.185Z,82.70
2018-09-20T05:24:22.453Z,82.83
2018-09-20T05:26:57.524Z,82.70
2018-09-20T05:29:25.925Z,82.60
2018-09-20T05:31:54.243Z,82.52
2018-09-20T05:34:22.504Z,82.55
2018-09-20T05:36:50.840Z,82.49
2018-09-20T05:39:19.143Z,82.02
2018-09-20T05:41:48.121Z,82.26
2018-09-20T05:44:16.458Z,82.19
2018-09-20T05:46:44.831Z,82.07
2018-09-20T05:49:13.156Z,82.25
2018-09-20T05:51:41.526Z,81.64
2018-09-20T05:54:09.821Z,82.09
2018-09-20T05:56:38.376Z,80.71
2018-09-20T05:59:06.699Z,81.37
2018-09-20T06:01:35.117Z,80.98
2018-09-20T06:04:03.449Z,81.20
2018-09-20T06:06:31.754Z,80.93
2018-09-20T06:09:00.138Z,80.70
2018-09-20T06:11:28.398Z,80.83
2018-09-20T06:13:56.733Z,80.58
2018-09-20T06:16:25.019Z,80.17
2018-09-20T06:18:53.349Z,80.51
2018-09-20T06:21:21.644Z,79.78
2018-09-20T06:23:49.984Z,79.52
2018-09-20T06:26:18.298Z,80.25
2018-09-20T06:28:46.718Z,79.75
2018-09-20T06:31:15.273Z,79.88
2018-09-20T06:33:43.573Z,80.11
2018-09-20T06:36:11.873Z,80.09
2018-09-20T06:38:40.288Z,79.95
2018-09-20T06:41:08.700Z,79.18
2018-09-20T06:43:37.098Z,79.04
2018-09-20T06:46:05.452Z,79.24
2018-09-20T06:48:33.793Z,79.15
2018-09-20T06:51:02.199Z,78.43
2018-09-20T06:53:30.548Z,78.30
2018-09-20T06:55:58.833Z,78.69
2018-09-20T06:58:27.192Z,78.05
2018-09-20T07:00:55.613Z,77.63
2018-09-20T07:03:23.973Z,77.59
2018-09-20T07:05:52.325Z,76.81
2018-09-20T07:08:20.728Z,76.50
2018-09-20T07:10:49.069Z,75.74
2018-09-20T07:13:17.369Z,75.93
2018-09-20T07:15:45.706Z,75.84
2018-09-20T07:18:14.037Z,75.05
2018-09-20T07:20:42.366Z,75.13
2018-09-20T07:23:10.663Z,74.08
2018-09-20T07:25:38.977Z,74.28
2018-09-20T07:28:07.327Z,73.34
2018-09-20T07:30:35.637Z,73.43
2018-09-20T07:33:03.946Z,73.25
2018-09-20T07:35:32.262Z,72.98
2018-09-20T07:38:00.585Z,73.05
2018-09-20T07:40:28.917Z,71.92
2018-09-20T07:42:57.238Z,72.26
2018-09-20T07:45:25.552Z,71.82
2018-09-20T07:47:53.911Z,71.73
2018-09-20T07:50:22.305Z,70.55
2018-09-20T07:52:50.664Z,69.98
2018-09-20T07:55:19.000Z,69.99
2018-09-20T07:57:47.329Z,69.15
2018-09-20T08:00:15.661Z,69.75
2018-09-20T08:02:43.920Z,69.10
2018-09-20T08:05:12.370Z,67.95
2018-09-20T08:07:40.764Z,67.60
2018-09-20T08:10:09.132Z,68.19
2018-09-20T08:12:37.438Z,67.87
2018-09-20T08:15:06.476Z,67.23
2018-09-20T08:17:34.775Z,65.54
2018-09-20T08:20:03.212Z,65.47
2018-09-20T08:22:31.555Z,64.77
2018-09-20T08:24:59.881Z,64.40
2018-09-20T08:27:28.166Z,63.89
2018-09-20T08:29:56.473Z,64.18
2018-09-20T08:32:24.772Z,64.73
2018-09-20T08:34:53.074Z,65.12
2018-09-20T08:37:21.398Z,65.49
2018-09-20T08:39:49.654Z,65.75
2018-09-20T08:42:18.047Z,65.03
2018-09-20T08:44:46.353Z,65.97
2018-09-20T08:47:14.674Z,65.43
2018-09-20T08:49:43.072Z,65.68
2018-09-20T08:52:11.400Z,66.15
2018-09-20T08:54:39.725Z,66.81
2018-09-20T08:57:08.100Z,66.21
2018-09-20T08:59:36.355Z,66.33
2018-09-20T09:02:04.709Z,66.59
2018-09-20T09:04:33.049Z,66.50
2018-09-20T09:07:01.436Z,66.06
2018-09-20T09:09:29.780Z,65.99
2018-09-20T09:11:58.151Z,66.35
2018-09-20T09:14:26.485Z,65.61
2018-09-20T09:16:54.777Z,65.46
2018-09-20T09:19:23.062Z,64.21
2018-09-20T09:21:51.338Z,64.77
2018-09-20T09:24:19.660Z,64.77
2018-09-20T09:26:47.950Z,64.76
2018-09-20T09:29:16.228Z,63.85
2018-09-20T09:31:44.507Z,64.49
2018-09-20T09:34:12.926Z,64.16
2018-09-20T09:36:41.381Z,63.06
2018-09-20T09:39:11.341Z,62.58
2018-09-20T09:41:39.654Z,61.61
2018-09-20T09:44:07.982Z,61.91
2018-09-20T09:46:36.327Z,61.50
2018-09-20T09:49:04.656Z,60.54
2018-09-20T09:51:32.963Z,60.54
2018-09-20T09:54:01.308Z,59.33
2018-09-20T09:56:30.401Z,59.71
2018-09-20T09:58:58.715Z,58.14
2018-09-20T10:01:27.080Z,57.86
2018-09-20T10:03:55.373Z,57.47
2018-09-20T10:06:23.711Z,57.43
2018-09-20T10:08:52.011Z,57.54
2018-09-20T10:11:20.345Z,56.83
2018-09-20T10:13:48.829Z,56.43
2018-09-20T10:16:17.065Z,56.74
2018-09-20T10:18:45.346Z,55.51
2018-09-20T10:21:13.678Z,55.10
2018-09-20T10:23:41.972Z,55.69
2018-09-20T10:26:10.307Z,55.22
2018-09-20T10:28:38.649Z,55.62
2018-09-20T10:31:06.968Z,54.70
2018-09-20T10:33:35.280Z,54.72
2018-09-20T10:36:03.716Z,54.27
2018-09-20T10:38:32.019Z,54.39
2018-09-20T10:41:00.890Z,54.31
2018-09-20T10:43:29.199Z,54.85
2018-09-20T10:45:57.617Z,54.22
2018-09-20T10:48:25.941Z,52.98
2018-09-20T10:50:54.255Z,52.66
2018-09-20T10:53:22.571Z,52.77
2018-09-20T10:55:50.920Z,52.62
2018-09-20T10:58:19.233Z,53.45
2018-09-20T11:00:47.592Z,53.33
2018-09-20T11:03:15.939Z,54.12
2018-09-20T11:05:44.317Z,53.07
2018-09-20T11:08:12.695Z,53.63
2018-09-20T11:10:41.022Z,52.90
2018-09-20T11:13:09.344Z,51.52
2018-09-20T11:15:37.678Z,51.68
2018-09-20T11:18:06.002Z,52.34
2018-09-20T11:20:34.299Z,50.64
2018-09-20T11:23:02.674Z,50.96
2018-09-20T11:25:31.040Z,51.20
2018-09-20T11:27:59.376Z,51.38
2018-09-20T11:30:27.696Z,51.75
2018-09-20T11:32:56.033Z,51.33
2018-09-20T11:35:24.328Z,51.30
2018-09-20T11:37:52.715Z,51.78
2018-09-20T11:40:21.070Z,52.04
2018-09-20T11:42:49.379Z,52.45
2018-09-20T11:45:17.679Z,51.79
2018-09-20T11:47:46.199Z,51.78
2018-09-20T11:50:14.496Z,51.63
2018-09-20T11:52:42.813Z,51.36
2018-09-20T11:55:11.125Z,50.54
2018-09-20T11:57:39.497Z,50.45
2018-09-20T12:00:07.957Z,51.48
2018-09-20T12:02:36.367Z,50.58
2018-09-20T12:05:04.700Z,50.20
2018-09-20T12:07:33.083Z,50.37
2018-09-20T12:10:02.597Z,49.91
2018-09-20T12:12:30.875Z,49.72
2018-09-20T12:14:59.152Z,49.54
2018-09-20T12:17:27.517Z,49.10
2018-09-20T12:19:55.870Z,48.42
2018-09-20T12:22:24.163Z,48.98
2018-09-20T12:24:52.454Z,49.47
2018-09-20T12:27:20.783Z,49.33
2018-09-20T12:29:49.093Z,50.59
2018-09-20T12:32:17.484Z,50.46
2018-09-20T12:34:45.681Z,49.81
2018-09-20T12:37:14.013Z,49.66
2018-09-20T12:39:42.353Z,49.75
2018-09-20T12:42:10.707Z,49.37
2018-09-20T12:44:39.105Z,48.64
2018-09-20T12:47:07.434Z,48.32
2018-09-20T12:49:35.754Z,47.48
2018-09-20T12:52:04.105Z,47.90
2018-09-20T12:54:32.502Z,48.42
2018-09-20T12:57:00.849Z,48.60
2018-09-20T12:59:29.181Z,47.70
2018-09-20T13:01:57.493Z,47.83
2018-09-20T13:04:26.053Z,47.80
2018-09-20T13:06:54.411Z,46.68
2018-09-20T13:09:22.762Z,47.59
2018-09-20T13:11:51.093Z,47.66
2018-09-20T13:14:19.535Z,47.39
2018-09-20T13:16:47.874Z,47.94
2018-09-20T13:19:16.295Z,47.83
2018-09-20T13:21:44.650Z,47.08
2018-09-20T13:24:12.987Z,46.89
2018-09-20T13:26:41.353Z,46.23
2018-09-20T13:29:09.672Z,46.61
2018-09-20T13:31:38.023Z,46.99
2018-09-20T13:34:06.389Z,46.39
2018-09-20T13:36:34.847Z,45.87
2018-09-20T13:39:03.537Z,47.13
2018-09-20T13:41:31.908Z,47.04
2018-09-20T13:44:00.287Z,47.57
2018-09-20T13:46:28.652Z,47.01
2018-09-20T13:48:56.989Z,47.50
2018-09-20T13:51:25.319Z,46.40
2018-09-20T13:53:54.014Z,46.11
2018-09-20T13:56:22.427Z,46.07
2018-09-20T13:58:50.860Z,45.17
2018-09-20T14:01:19.251Z,45.66
2018-09-20T14:03:47.976Z,45.59
2018-09-20T14:06:16.372Z,46.52
2018-09-20T14:08:44.741Z,46.74
2018-09-20T14:11:13.085Z,46.69
2018-09-20T14:13:41.446Z,45.52
2018-09-20T14:16:09.850Z,46.09
2018-09-20T14:18:38.221Z,45.83
2018-09-20T14:21:07.041Z,46.00
2018-09-20T14:23:35.430Z,46.94
2018-09-20T14:26:03.761Z,46.57
2018-09-20T14:28:32.087Z,46.81
2018-09-20T14:31:00.456Z,47.16
2018-09-20T14:33:28.927Z,47.70
2018-09-20T14:35:57.271Z,47.28
2018-09-20T14:38:25.593Z,46.86
2018-09-20T14:40:53.955Z,46.91
2018-09-20T14:43:22.405Z,46.50
2018-09-20T14:45:50.757Z,46.79
2018-09-20T14:48:19.160Z,47.25
2018-09-20T14:50:47.545Z,47.01
2018-09-20T14:53:16.035Z,46.96
2018-09-20T14:55:44.359Z,46.69
2018-09-20T14:58:12.760Z,46.90
2018-09-20T15:00:41.226Z,47.28
2018-09-20T15:03:09.568Z,46.64
2018-09-20T15:05:37.979Z,47.47
2018-09-20T15:08:06.378Z,46.92
2018-09-20T15:10:34.758Z,47.63
2018-09-20T15:13:03.118Z,47.43
2018-09-20T15:15:31.466Z,47.95
2018-09-20T15:17:59.784Z,47.65
2018-09-20T15:20:28.272Z,48.19
2018-09-20T15:22:56.639Z,48.46
2018-09-20T15:25:24.989Z,48.34
2018-09-20T15:27:53.344Z,48.38
2018-09-20T15:30:21.710Z,48.33
2018-09-20T15:32:50.028Z,49.24
2018-09-20T15:35:18.477Z,49.46
2018-09-20T15:37:46.864Z,48.85
2018-09-20T15:40:15.415Z,49.45
2018-09-20T15:42:43.762Z,48.77
2018-09-20T15:45:12.118Z,49.33
2018-09-20T15:47:40.486Z,49.98
2018-09-20T15:50:08.838Z,48.98
2018-09-20T15:52:37.203Z,49.95
2018-09-20T15:55:05.647Z,49.22
2018-09-20T15:57:33.971Z,50.18
2018-09-20T16:00:02.366Z,49.45
2018-09-20T16:02:30.740Z,49.59
2018-09-20T16:04:59.166Z,49.94
2018-09-20T16:07:27.551Z,50.17
2018-09-20T16:09:55.917Z,50.39
2018-09-20T16:12:24.306Z,50.30
2018-09-20T16:14:52.708Z,50.12
2018-09-20T16:17:21.187Z,50.62
2018-09-20T16:19:49.562Z,50.52
2018-09-20T16:22:17.918Z,50.47
2018-09-20T16:24:46.319Z,51.21
2018-09-20T16:27:14.692Z,51.84
2018-09-20T16:29:58.829Z,51.83
2018-09-20T16:32:56.258Z,51.21
2018-09-20T16:35:32.281Z,51.33
2018-09-20T16:38:16.778Z,52.29
2018-09-20T16:40:47.319Z,52.14
2018-09-20T16:43:15.657Z,52.55
2018-09-20T16:45:43.999Z,52.13
2018-09-20T16:48:12.406Z,53.48
2018-09-20T16:50:40.733Z,52.70
2018-09-20T16:53:09.128Z,52.93
2018-09-20T16:55:37.481Z,52.92
2018-09-20T16:58:05.827Z,54.05
2018-09-20T17:00:34.170Z,54.08
2018-09-20T17:03:02.551Z,53.45
2018-09-20T17:05:32.052Z,54.15
2018-09-20T17:08:00.614Z,54.56
2018-09-20T17:10:29.004Z,54.45
2018-09-20T17:12:57.398Z,54.71
2018-09-20T17:15:25.773Z,55.43
2018-09-20T17:17:54.167Z,55.86
2018-09-20T17:20:22.756Z,55.79
2018-09-20T17:22:51.122Z,56.83
2018-09-20T17:25:19.562Z,56.48
2018-09-20T17:27:47.922Z,56.43
2018-09-20T17:30:16.363Z,57.51
2018-09-20T17:32:44.705Z,58.32
2018-09-20T17:35:13.893Z,58.45
2018-09-20T17:37:44.015Z,59.29
2018-09-20T17:40:14.051Z,58.86
2018-09-20T17:42:43.913Z,58.98
2018-09-20T17:45:12.299Z,59.75
2018-09-20T17:47:40.646Z,59.64
2018-09-20T17:50:08.989Z,60.31
2018-09-20T17:52:38.237Z,60.01
2018-09-20T17:55:07.524Z,61.12
2018-09-20T17:57:37.114Z,60.89
2018-09-20T18:00:05.494Z,61.78
2018-09-20T18:02:33.901Z,61.86
2018-09-20T18:05:02.259Z,62.56
2018-09-20T18:07:30.555Z,62.71
2018-09-20T18:09:58.857Z,63.51
2018-09-20T18:12:27.182Z,64.11
2018-09-20T18:14:55.535Z,64.75
2018-09-20T18:17:23.885Z,64.82
2018-09-20T18:19:52.289Z,64.55
2018-09-20T18:22:20.683Z,65.38
2018-09-20T18:24:48.999Z,65.40
2018-09-20T18:27:17.343Z,65.32
2018-09-20T18:29:45.729Z,65.59
2018-09-20T18:32:14.079Z,66.38
2018-09-20T18:34:42.432Z,65.95
2018-09-20T18:37:10.977Z,66.41
2018-09-20T18:39:39.373Z,66.36
2018-09-20T18:42:07.701Z,66.76
2018-09-20T18:44:36.053Z,66.53
2018-09-20T18:47:04.476Z,66.63
2018-09-20T18:49:32.843Z,66.94
2018-09-20T18:52:01.202Z,67.05
2018-09-20T18:54:29.558Z,67.63
2018-09-20T18:56:58.009Z,67.43
2018-09-20T18:59:26.365Z,67.37
2018-09-20T19:01:55.605Z,67.89
2018-09-20T19:04:23.951Z,68.03
2018-09-20T19:06:52.326Z,69.14
2018-09-20T19:09:20.766Z,68.91
2018-09-20T19:11:49.142Z,69.15
2018-09-20T19:14:17.519Z,69.66
2018-09-20T19:16:45.899Z,70.44
2018-09-20T19:19:14.304Z,70.38
2018-09-20T19:21:42.709Z,70.57
2018-09-20T19:24:11.068Z,70.39
2018-09-20T19:26:39.445Z,70.78
2018-09-20T19:29:07.794Z,70.38
2018-09-20T19:31:36.181Z,70.99
2018-09-20T19:34:04.564Z,71.22
2018-09-20T19:36:32.985Z,71.98
2018-09-20T19:39:01.386Z,71.95
2018-09-20T19:41:29.759Z,71.07
2018-09-20T19:43:58.093Z,71.15
2018-09-20T19:46:26.485Z,71.73
2018-09-20T19:48:54.900Z,71.25
2018-09-20T19:51:23.275Z,72.25
2018-09-20T19:53:51.630Z,72.36
2018-09-20T19:56:20.045Z,72.36
2018-09-20T19:58:48.413Z,72.38
2018-09-20T20:01:16.761Z,71.54
2018-09-20T20:03:45.158Z,72.51
2018-09-20T20:06:13.502Z,71.94
2018-09-20T20:08:41.895Z,72.40
2018-09-20T20:11:10.233Z,71.99
2018-09-20T20:13:38.611Z,72.02
2018-09-20T20:16:07.034Z,72.32
2018-09-20T20:18:35.377Z,71.61
2018-09-20T20:21:03.705Z,72.44
2018-09-20T20:23:32.033Z,71.72
2018-09-20T20:26:00.708Z,71.25
2018-09-20T20:28:29.062Z,70.73
2018-09-20T20:30:57.384Z,70.90
2018-09-20T20:33:25.769Z,70.37
2018-09-20T20:35:54.286Z,69.91
2018-09-20T20:38:22.656Z,69.10
2018-09-20T20:40:50.987Z,68.86
2018-09-20T20:43:19.411Z,69.45
2018-09-20T20:45:47.738Z,69.43
2018-09-20T20:48:16.058Z,68.59
2018-09-20T20:50:44.377Z,68.50
2018-09-20T20:53:12.735Z,67.69
2018-09-20T20:55:41.105Z,68.18
2018-09-20T20:58:09.636Z,67.99
2018-09-20T21:00:37.968Z,67.89
2018-09-20T21:03:06.449Z,68.04
2018-09-20T21:05:34.842Z,67.66
2018-09-20T21:08:03.193Z,67.78
2018-09-20T21:10:31.537Z,68.45
2018-09-20T21:12:59.908Z,67.64
2018-09-20T21:15:28.255Z,67.60
2018-09-20T21:17:56.646Z,67.83
2018-09-20T21:20:24.985Z,67.76
2018-09-20T21:22:53.323Z,67.43
2018-09-20T21:25:21.691Z,67.39
2018-09-20T21:27:50.152Z,67.22
2018-09-20T21:30:18.436Z,67.99
2018-09-20T21:32:46.798Z,67.87
2018-09-20T21:35:15.193Z,67.76
2018-09-20T21:37:43.521Z,67.84
2018-09-20T21:40:11.901Z,68.19
2018-09-20T21:42:40.263Z,67.75
2018-09-20T21:45:08.792Z,67.58
2018-09-20T21:47:37.129Z,67.32
2018-09-20T21:50:05.474Z,68.12
2018-09-20T21:52:33.795Z,67.62
2018-09-20T21:55:02.148Z,68.00
2018-09-20T21:57:30.469Z,68.08
2018-09-20T21:59:58.971Z,67.20
2018-09-20T22:02:32.638Z,67.14
2018-09-20T22:05:00.988Z,67.80
2018-09-20T22:07:29.379Z,67.67
2018-09-20T22:09:57.728Z,67.74
2018-09-20T22:12:26.102Z,67.25
2018-09-20T22:14:54.479Z,67.65
2018-09-20T22:17:22.873Z,66.62
2018-09-20T22:19:51.183Z,67.25
2018-09-20T22:22:19.575Z,67.48
2018-09-20T22:24:47.890Z,66.56
2018-09-20T22:27:16.251Z,66.59
2018-09-20T22:29:44.628Z,66.82
2018-09-20T22:32:12.995Z,66.45
2018-09-20T22:34:41.441Z,66.18
2018-09-20T22:37:09.759Z,66.35
2018-09-20T22:39:38.176Z,66.33
2018-09-20T22:42:06.494Z,66.88
2018-09-20T22:44:34.828Z,66.51
2018-09-20T22:47:03.181Z,66.36
2018-09-20T22:52:13.865Z,66.12
2018-09-20T22:54:42.338Z,66.47
2018-09-20T22:57:10.702Z,65.91
2018-09-20T22:59:39.037Z,66.04
2018-09-20T23:02:10.550Z,66.23
2018-09-20T23:04:38.938Z,67.01
2018-09-20T23:07:07.622Z,66.34
2018-09-20T23:09:36.272Z,66.05
2018-09-20T23:12:04.701Z,66.80
2018-09-20T23:14:33.396Z,66.45
2018-09-20T23:17:01.793Z,66.74
2018-09-20T23:19:30.152Z,66.86
2018-09-20T23:21:58.496Z,66.23
2018-09-20T23:24:26.852Z,67.16
2018-09-20T23:26:55.226Z,66.39
2018-09-20T23:29:23.614Z,65.55
2018-09-20T23:31:52.052Z,65.03
2018-09-20T23:34:20.388Z,65.34
2018-09-20T23:36:48.738Z,64.70
2018-09-20T23:39:17.209Z,64.47
2018-09-20T23:41:45.583Z,64.87
2018-09-20T23:44:13.945Z,64.60
2018-09-20T23:46:42.321Z,63.92
2018-09-20T23:49:10.710Z,64.35
2018-09-20T23:51:39.080Z,63.68
2018-09-20T23:54:07.400Z,63.48
2018-09-20T23:56:35.779Z,63.95
2018-09-20T23:59:04.185Z,63.72
